sensor_id;sensor_type;location;lat;lon;timestamp;temperature;humidity
20102;DHT22;10210;52.284;9.892;2023-12-29T00:02:01;12.60;99.90
20102;DHT22;10210;52.284;9.892;2023-12-29T00:04:27;12.60;99.90
20102;DHT22;10210;52.284;9.892;2023-12-29T00:06:52;12.60;99.90
20102;DHT22;10210;52.284;9.892;2023-12-29T00:09:18;12.60;99.90
20102;DHT22;10210;52.284;9.892;2023-12-29T00:11:50;12.60;99.90
20102;DHT22;10210;52.284;9.892;2023-12-29T00:14:16;12.60;99.90
20102;DHT22;10210;52.284;9.892;2023-12-29T00:16:42;12.60;99.90
20102;DHT22;10210;52.284;9.892;2023-12-29T00:19:09;12.60;99.90
20102;DHT22;10210;52.284;9.892;2023-12-29T00:21:36;12.60;99.90
20102;DHT22;10210;52.284;9.892;2023-12-29T00:24:02;12.60;99.90
20102;DHT22;10210;52.284;9.892;2023-12-29T00:26:28;12.60;99.90
20102;DHT22;10210;52.284;9.892;2023-12-29T00:28:54;12.70;99.90
20102;DHT22;10210;52.284;9.892;2023-12-29T00:31:20;12.60;99.90
20102;DHT22;10210;52.284;9.892;2023-12-29T00:33:46;12.70;99.90
20102;DHT22;10210;52.284;9.892;2023-12-29T00:36:15;12.60;99.90
20102;DHT22;10210;52.284;9.892;2023-12-29T00:38:42;12.60;99.90
20102;DHT22;10210;52.284;9.892;2023-12-29T00:41:08;12.60;99.90
20102;DHT22;10210;52.284;9.892;2023-12-29T00:43:34;12.70;99.90
20102;DHT22;10210;52.284;9.892;2023-12-29T00:46:07;12.70;99.90
20102;DHT22;10210;52.284;9.892;2023-12-29T00:48:34;12.70;99.90
20102;DHT22;10210;52.284;9.892;2023-12-29T00:51:01;12.70;99.90
20102;DHT22;10210;52.284;9.892;2023-12-29T00:53:28;12.70;99.90
20102;DHT22;10210;52.284;9.892;2023-12-29T00:55:54;12.60;99.90
20102;DHT22;10210;52.284;9.892;2023-12-29T00:58:20;12.70;99.90
20102;DHT22;10210;52.284;9.892;2023-12-29T01:00:46;12.70;99.90
20102;DHT22;10210;52.284;9.892;2023-12-29T01:03:11;12.70;99.90
20102;DHT22;10210;52.284;9.892;2023-12-29T01:05:37;12.70;99.90
20102;DHT22;10210;52.284;9.892;2023-12-29T01:08:03;12.60;99.90
20102;DHT22;10210;52.284;9.892;2023-12-29T01:10:28;12.70;99.90
20102;DHT22;10210;52.284;9.892;2023-12-29T01:12:54;12.70;99.90
20102;DHT22;10210;52.284;9.892;2023-12-29T01:15:20;12.70;99.90
20102;DHT22;10210;52.284;9.892;2023-12-29T01:17:45;12.70;99.90
20102;DHT22;10210;52.284;9.892;2023-12-29T01:20:11;12.70;99.90
20102;DHT22;10210;52.284;9.892;2023-12-29T01:22:37;12.60;99.90
20102;DHT22;10210;52.284;9.892;2023-12-29T01:25:03;12.60;99.90
20102;DHT22;10210;52.284;9.892;2023-12-29T01:27:29;12.70;99.90
20102;DHT22;10210;52.284;9.892;2023-12-29T01:29:55;12.60;99.90
20102;DHT22;10210;52.284;9.892;2023-12-29T01:32:21;12.60;99.90
20102;DHT22;10210;52.284;9.892;2023-12-29T01:34:47;12.60;99.90
20102;DHT22;10210;52.284;9.892;2023-12-29T01:37:13;12.60;99.90
20102;DHT22;10210;52.284;9.892;2023-12-29T01:39:38;12.60;99.90
20102;DHT22;10210;52.284;9.892;2023-12-29T01:42:05;12.60;99.90
20102;DHT22;10210;52.284;9.892;2023-12-29T01:44:32;12.60;99.90
20102;DHT22;10210;52.284;9.892;2023-12-29T01:47:01;12.60;99.90
20102;DHT22;10210;52.284;9.892;2023-12-29T01:49:33;12.70;99.90
20102;DHT22;10210;52.284;9.892;2023-12-29T01:52:00;12.60;99.90
20102;DHT22;10210;52.284;9.892;2023-12-29T01:54:29;12.60;99.90
20102;DHT22;10210;52.284;9.892;2023-12-29T01:57:00;12.70;99.90
20102;DHT22;10210;52.284;9.892;2023-12-29T01:59:29;12.60;99.90
20102;DHT22;10210;52.284;9.892;2023-12-29T02:01:56;12.60;99.90
20102;DHT22;10210;52.284;9.892;2023-12-29T02:04:27;12.60;99.90
20102;DHT22;10210;52.284;9.892;2023-12-29T02:06:54;12.60;99.90
20102;DHT22;10210;52.284;9.892;2023-12-29T02:09:21;12.50;99.90
20102;DHT22;10210;52.284;9.892;2023-12-29T02:11:47;12.60;99.90
20102;DHT22;10210;52.284;9.892;2023-12-29T02:14:15;12.50;99.90
20102;DHT22;10210;52.284;9.892;2023-12-29T02:19:46;12.50;99.90
20102;DHT22;10210;52.284;9.892;2023-12-29T02:22:14;12.50;99.90
20102;DHT22;10210;52.284;9.892;2023-12-29T02:24:50;12.50;99.90
20102;DHT22;10210;52.284;9.892;2023-12-29T02:27:34;12.50;99.90
20102;DHT22;10210;52.284;9.892;2023-12-29T02:30:37;12.50;99.90
20102;DHT22;10210;52.284;9.892;2023-12-29T02:33:10;12.50;99.90
20102;DHT22;10210;52.284;9.892;2023-12-29T02:35:43;12.50;99.90
20102;DHT22;10210;52.284;9.892;2023-12-29T02:38:11;12.50;99.90
20102;DHT22;10210;52.284;9.892;2023-12-29T02:40:38;12.50;99.90
20102;DHT22;10210;52.284;9.892;2023-12-29T02:43:03;12.50;99.90
20102;DHT22;10210;52.284;9.892;2023-12-29T02:45:29;12.50;99.90
20102;DHT22;10210;52.284;9.892;2023-12-29T02:47:55;12.50;99.90
20102;DHT22;10210;52.284;9.892;2023-12-29T02:50:20;12.50;99.90
20102;DHT22;10210;52.284;9.892;2023-12-29T02:52:46;12.50;99.90
20102;DHT22;10210;52.284;9.892;2023-12-29T02:55:12;12.50;99.90
20102;DHT22;10210;52.284;9.892;2023-12-29T02:57:38;12.50;99.90
20102;DHT22;10210;52.284;9.892;2023-12-29T03:00:05;12.50;99.90
20102;DHT22;10210;52.284;9.892;2023-12-29T03:02:31;12.50;99.90
20102;DHT22;10210;52.284;9.892;2023-12-29T03:04:58;12.60;99.90
20102;DHT22;10210;52.284;9.892;2023-12-29T03:07:24;12.60;99.90
20102;DHT22;10210;52.284;9.892;2023-12-29T03:09:50;12.60;99.90
20102;DHT22;10210;52.284;9.892;2023-12-29T03:12:15;12.60;99.90
20102;DHT22;10210;52.284;9.892;2023-12-29T03:14:41;12.60;99.90
20102;DHT22;10210;52.284;9.892;2023-12-29T03:17:07;12.60;99.90
20102;DHT22;10210;52.284;9.892;2023-12-29T03:19:33;12.60;99.90
20102;DHT22;10210;52.284;9.892;2023-12-29T03:21:59;12.60;99.90
20102;DHT22;10210;52.284;9.892;2023-12-29T03:24:25;12.60;99.90
20102;DHT22;10210;52.284;9.892;2023-12-29T03:26:50;12.60;99.90
20102;DHT22;10210;52.284;9.892;2023-12-29T03:29:16;12.60;99.90
20102;DHT22;10210;52.284;9.892;2023-12-29T03:31:41;12.70;99.90
20102;DHT22;10210;52.284;9.892;2023-12-29T03:34:07;12.70;99.90
20102;DHT22;10210;52.284;9.892;2023-12-29T03:36:33;12.70;99.90
20102;DHT22;10210;52.284;9.892;2023-12-29T03:39:00;12.70;99.90
20102;DHT22;10210;52.284;9.892;2023-12-29T03:41:25;12.70;99.90
20102;DHT22;10210;52.284;9.892;2023-12-29T03:43:51;12.70;99.90
20102;DHT22;10210;52.284;9.892;2023-12-29T03:46:17;12.70;99.90
20102;DHT22;10210;52.284;9.892;2023-12-29T03:48:43;12.70;99.90
20102;DHT22;10210;52.284;9.892;2023-12-29T03:51:09;12.70;99.90
20102;DHT22;10210;52.284;9.892;2023-12-29T03:53:35;12.70;99.90
20102;DHT22;10210;52.284;9.892;2023-12-29T03:56:07;12.70;99.90
20102;DHT22;10210;52.284;9.892;2023-12-29T03:58:35;12.70;99.90
20102;DHT22;10210;52.284;9.892;2023-12-29T04:01:01;12.70;99.90
20102;DHT22;10210;52.284;9.892;2023-12-29T04:03:27;12.70;99.90
20102;DHT22;10210;52.284;9.892;2023-12-29T04:05:53;12.70;99.90
20102;DHT22;10210;52.284;9.892;2023-12-29T04:08:19;12.70;99.90
20102;DHT22;10210;52.284;9.892;2023-12-29T04:10:44;12.70;99.90
20102;DHT22;10210;52.284;9.892;2023-12-29T04:13:10;12.70;99.90
20102;DHT22;10210;52.284;9.892;2023-12-29T04:15:36;12.70;99.90
20102;DHT22;10210;52.284;9.892;2023-12-29T04:18:01;12.60;99.90
20102;DHT22;10210;52.284;9.892;2023-12-29T04:20:27;12.60;99.90
20102;DHT22;10210;52.284;9.892;2023-12-29T04:22:53;12.50;99.90
20102;DHT22;10210;52.284;9.892;2023-12-29T04:25:18;12.50;99.90
20102;DHT22;10210;52.284;9.892;2023-12-29T04:27:44;12.50;99.90
20102;DHT22;10210;52.284;9.892;2023-12-29T04:30:10;12.40;99.90
20102;DHT22;10210;52.284;9.892;2023-12-29T04:32:35;12.40;99.90
20102;DHT22;10210;52.284;9.892;2023-12-29T04:35:01;12.40;99.90
20102;DHT22;10210;52.284;9.892;2023-12-29T04:37:27;12.40;99.90
20102;DHT22;10210;52.284;9.892;2023-12-29T04:39:53;12.30;99.90
20102;DHT22;10210;52.284;9.892;2023-12-29T04:42:18;12.30;99.90
20102;DHT22;10210;52.284;9.892;2023-12-29T04:44:44;12.30;99.90
20102;DHT22;10210;52.284;9.892;2023-12-29T04:47:10;12.30;99.90
20102;DHT22;10210;52.284;9.892;2023-12-29T04:49:35;12.30;99.90
20102;DHT22;10210;52.284;9.892;2023-12-29T04:52:01;12.30;99.90
20102;DHT22;10210;52.284;9.892;2023-12-29T04:54:27;12.30;99.90
20102;DHT22;10210;52.284;9.892;2023-12-29T04:56:53;12.30;99.90
20102;DHT22;10210;52.284;9.892;2023-12-29T04:59:18;12.20;99.90
20102;DHT22;10210;52.284;9.892;2023-12-29T05:01:44;12.30;99.90
20102;DHT22;10210;52.284;9.892;2023-12-29T05:04:10;12.20;99.90
20102;DHT22;10210;52.284;9.892;2023-12-29T05:06:36;12.20;99.90
20102;DHT22;10210;52.284;9.892;2023-12-29T05:09:01;12.30;99.90
20102;DHT22;10210;52.284;9.892;2023-12-29T05:11:28;12.20;99.90
20102;DHT22;10210;52.284;9.892;2023-12-29T05:13:53;12.30;99.90
20102;DHT22;10210;52.284;9.892;2023-12-29T05:16:19;12.20;99.90
20102;DHT22;10210;52.284;9.892;2023-12-29T05:18:45;12.20;99.90
20102;DHT22;10210;52.284;9.892;2023-12-29T05:21:17;12.20;99.90
20102;DHT22;10210;52.284;9.892;2023-12-29T05:23:44;12.20;99.90
20102;DHT22;10210;52.284;9.892;2023-12-29T05:26:14;12.20;99.90
20102;DHT22;10210;52.284;9.892;2023-12-29T05:28:40;12.20;99.90
20102;DHT22;10210;52.284;9.892;2023-12-29T05:31:06;12.20;99.90
20102;DHT22;10210;52.284;9.892;2023-12-29T05:33:32;12.20;99.90
20102;DHT22;10210;52.284;9.892;2023-12-29T05:36:06;12.20;99.90
20102;DHT22;10210;52.284;9.892;2023-12-29T05:38:35;12.10;99.90
20102;DHT22;10210;52.284;9.892;2023-12-29T05:41:02;12.10;99.90
20102;DHT22;10210;52.284;9.892;2023-12-29T05:43:31;12.10;99.90
20102;DHT22;10210;52.284;9.892;2023-12-29T05:45:58;12.10;99.90
20102;DHT22;10210;52.284;9.892;2023-12-29T05:48:24;12.10;99.90
20102;DHT22;10210;52.284;9.892;2023-12-29T05:50:50;12.10;99.90
20102;DHT22;10210;52.284;9.892;2023-12-29T05:53:16;12.10;99.90
20102;DHT22;10210;52.284;9.892;2023-12-29T05:55:42;12.10;99.90
20102;DHT22;10210;52.284;9.892;2023-12-29T05:58:08;12.10;99.90
20102;DHT22;10210;52.284;9.892;2023-12-29T06:00:35;12.10;99.90
20102;DHT22;10210;52.284;9.892;2023-12-29T06:03:02;12.10;99.90
20102;DHT22;10210;52.284;9.892;2023-12-29T06:05:29;12.10;99.90
20102;DHT22;10210;52.284;9.892;2023-12-29T06:07:55;12.20;99.90
20102;DHT22;10210;52.284;9.892;2023-12-29T06:10:21;12.20;99.90
20102;DHT22;10210;52.284;9.892;2023-12-29T06:12:47;12.20;99.90
20102;DHT22;10210;52.284;9.892;2023-12-29T06:15:13;12.20;99.90
20102;DHT22;10210;52.284;9.892;2023-12-29T06:17:42;12.20;99.90
20102;DHT22;10210;52.284;9.892;2023-12-29T06:20:08;12.20;99.90
20102;DHT22;10210;52.284;9.892;2023-12-29T06:22:39;12.20;99.90
20102;DHT22;10210;52.284;9.892;2023-12-29T06:25:10;12.20;99.90
20102;DHT22;10210;52.284;9.892;2023-12-29T06:27:37;12.20;99.90
20102;DHT22;10210;52.284;9.892;2023-12-29T06:30:07;12.30;99.90
20102;DHT22;10210;52.284;9.892;2023-12-29T06:32:34;12.20;99.90
20102;DHT22;10210;52.284;9.892;2023-12-29T06:35:00;12.30;99.90
20102;DHT22;10210;52.284;9.892;2023-12-29T06:37:26;12.30;99.90
20102;DHT22;10210;52.284;9.892;2023-12-29T06:39:52;12.30;99.90
20102;DHT22;10210;52.284;9.892;2023-12-29T06:42:17;12.30;99.90
20102;DHT22;10210;52.284;9.892;2023-12-29T06:44:43;12.30;99.90
20102;DHT22;10210;52.284;9.892;2023-12-29T06:47:08;12.30;99.90
20102;DHT22;10210;52.284;9.892;2023-12-29T06:49:34;12.40;99.90
20102;DHT22;10210;52.284;9.892;2023-12-29T06:52:00;12.40;99.90
20102;DHT22;10210;52.284;9.892;2023-12-29T06:54:26;12.40;99.90
20102;DHT22;10210;52.284;9.892;2023-12-29T06:56:52;12.30;99.90
20102;DHT22;10210;52.284;9.892;2023-12-29T06:59:18;12.40;99.90
20102;DHT22;10210;52.284;9.892;2023-12-29T07:01:48;12.40;99.90
20102;DHT22;10210;52.284;9.892;2023-12-29T07:04:13;12.40;99.90
20102;DHT22;10210;52.284;9.892;2023-12-29T07:06:41;12.40;99.90
20102;DHT22;10210;52.284;9.892;2023-12-29T07:09:07;12.40;99.90
20102;DHT22;10210;52.284;9.892;2023-12-29T07:11:35;12.50;99.90
20102;DHT22;10210;52.284;9.892;2023-12-29T07:14:01;12.50;99.90
20102;DHT22;10210;52.284;9.892;2023-12-29T07:16:28;12.50;99.90
20102;DHT22;10210;52.284;9.892;2023-12-29T07:18:54;12.50;99.90
20102;DHT22;10210;52.284;9.892;2023-12-29T07:21:19;12.50;99.90
20102;DHT22;10210;52.284;9.892;2023-12-29T07:23:45;12.50;99.90
20102;DHT22;10210;52.284;9.892;2023-12-29T07:26:11;12.50;99.90
20102;DHT22;10210;52.284;9.892;2023-12-29T07:28:37;12.50;99.90
20102;DHT22;10210;52.284;9.892;2023-12-29T07:31:02;12.50;99.90
20102;DHT22;10210;52.284;9.892;2023-12-29T07:33:29;12.50;99.90
20102;DHT22;10210;52.284;9.892;2023-12-29T07:35:55;12.60;99.90
20102;DHT22;10210;52.284;9.892;2023-12-29T07:38:21;12.60;99.90
20102;DHT22;10210;52.284;9.892;2023-12-29T07:40:46;12.60;99.90
20102;DHT22;10210;52.284;9.892;2023-12-29T07:43:15;12.60;99.90
20102;DHT22;10210;52.284;9.892;2023-12-29T07:45:40;12.60;99.90
20102;DHT22;10210;52.284;9.892;2023-12-29T07:48:08;12.60;99.90
20102;DHT22;10210;52.284;9.892;2023-12-29T07:50:35;12.70;99.90
20102;DHT22;10210;52.284;9.892;2023-12-29T07:53:00;12.60;99.90
20102;DHT22;10210;52.284;9.892;2023-12-29T07:55:29;12.60;99.90
20102;DHT22;10210;52.284;9.892;2023-12-29T07:57:55;12.60;99.90
20102;DHT22;10210;52.284;9.892;2023-12-29T08:00:21;12.60;99.90
20102;DHT22;10210;52.284;9.892;2023-12-29T08:02:47;12.60;99.90
20102;DHT22;10210;52.284;9.892;2023-12-29T08:05:13;12.70;99.90
20102;DHT22;10210;52.284;9.892;2023-12-29T08:07:41;12.60;99.90
20102;DHT22;10210;52.284;9.892;2023-12-29T08:10:06;12.70;99.90
20102;DHT22;10210;52.284;9.892;2023-12-29T08:12:34;12.60;99.90
20102;DHT22;10210;52.284;9.892;2023-12-29T08:15:01;12.70;99.90
20102;DHT22;10210;52.284;9.892;2023-12-29T08:17:28;12.70;99.90
20102;DHT22;10210;52.284;9.892;2023-12-29T08:19:54;12.70;99.90
20102;DHT22;10210;52.284;9.892;2023-12-29T08:22:20;12.70;99.90
20102;DHT22;10210;52.284;9.892;2023-12-29T08:24:46;12.70;99.90
20102;DHT22;10210;52.284;9.892;2023-12-29T08:27:12;12.70;99.90
20102;DHT22;10210;52.284;9.892;2023-12-29T08:29:39;12.70;99.90
20102;DHT22;10210;52.284;9.892;2023-12-29T08:32:05;12.70;99.90
20102;DHT22;10210;52.284;9.892;2023-12-29T08:34:32;12.70;99.90
20102;DHT22;10210;52.284;9.892;2023-12-29T08:36:59;12.80;99.90
20102;DHT22;10210;52.284;9.892;2023-12-29T08:39:25;12.70;99.90
20102;DHT22;10210;52.284;9.892;2023-12-29T08:41:51;12.70;99.90
20102;DHT22;10210;52.284;9.892;2023-12-29T08:44:17;12.70;99.90
20102;DHT22;10210;52.284;9.892;2023-12-29T08:46:42;12.80;99.90
20102;DHT22;10210;52.284;9.892;2023-12-29T08:49:08;12.80;99.90
20102;DHT22;10210;52.284;9.892;2023-12-29T08:51:35;12.80;99.90
20102;DHT22;10210;52.284;9.892;2023-12-29T08:54:00;12.80;99.90
20102;DHT22;10210;52.284;9.892;2023-12-29T08:56:26;12.80;99.90
20102;DHT22;10210;52.284;9.892;2023-12-29T08:58:53;12.80;99.90
20102;DHT22;10210;52.284;9.892;2023-12-29T09:01:19;12.80;99.90
20102;DHT22;10210;52.284;9.892;2023-12-29T09:03:44;12.80;99.90
20102;DHT22;10210;52.284;9.892;2023-12-29T09:06:10;12.90;99.90
20102;DHT22;10210;52.284;9.892;2023-12-29T09:08:36;12.90;99.90
20102;DHT22;10210;52.284;9.892;2023-12-29T09:11:02;12.90;99.90
20102;DHT22;10210;52.284;9.892;2023-12-29T09:13:28;12.90;99.90
20102;DHT22;10210;52.284;9.892;2023-12-29T09:15:54;12.90;99.90
20102;DHT22;10210;52.284;9.892;2023-12-29T09:18:21;12.90;99.90
20102;DHT22;10210;52.284;9.892;2023-12-29T09:20:47;12.90;99.90
20102;DHT22;10210;52.284;9.892;2023-12-29T09:23:13;13.00;99.90
20102;DHT22;10210;52.284;9.892;2023-12-29T09:25:40;13.00;99.90
20102;DHT22;10210;52.284;9.892;2023-12-29T09:28:06;13.00;99.90
20102;DHT22;10210;52.284;9.892;2023-12-29T09:30:31;13.00;99.90
20102;DHT22;10210;52.284;9.892;2023-12-29T09:32:57;13.00;99.90
20102;DHT22;10210;52.284;9.892;2023-12-29T09:35:23;13.00;99.90
20102;DHT22;10210;52.284;9.892;2023-12-29T09:37:49;13.00;99.90
20102;DHT22;10210;52.284;9.892;2023-12-29T09:40:15;13.00;99.90
20102;DHT22;10210;52.284;9.892;2023-12-29T09:42:43;13.00;99.90
20102;DHT22;10210;52.284;9.892;2023-12-29T09:45:13;13.00;99.90
20102;DHT22;10210;52.284;9.892;2023-12-29T09:47:41;13.00;99.90
20102;DHT22;10210;52.284;9.892;2023-12-29T09:50:10;13.00;99.90
20102;DHT22;10210;52.284;9.892;2023-12-29T09:52:41;12.90;99.90
20102;DHT22;10210;52.284;9.892;2023-12-29T09:55:09;12.90;99.90
20102;DHT22;10210;52.284;9.892;2023-12-29T09:57:37;12.80;99.90
20102;DHT22;10210;52.284;9.892;2023-12-29T10:00:04;12.80;99.90
20102;DHT22;10210;52.284;9.892;2023-12-29T10:02:31;12.70;99.90
20102;DHT22;10210;52.284;9.892;2023-12-29T10:04:59;12.70;99.90
20102;DHT22;10210;52.284;9.892;2023-12-29T10:07:31;12.60;99.90
20102;DHT22;10210;52.284;9.892;2023-12-29T10:10:02;12.60;99.90
20102;DHT22;10210;52.284;9.892;2023-12-29T10:12:29;12.60;99.90
20102;DHT22;10210;52.284;9.892;2023-12-29T10:15:10;12.50;99.90
20102;DHT22;10210;52.284;9.892;2023-12-29T10:18:24;12.50;99.90
20102;DHT22;10210;52.284;9.892;2023-12-29T10:21:23;12.40;99.90
20102;DHT22;10210;52.284;9.892;2023-12-29T10:24:12;12.40;99.90
20102;DHT22;10210;52.284;9.892;2023-12-29T10:26:42;12.30;99.90
20102;DHT22;10210;52.284;9.892;2023-12-29T10:29:10;12.20;99.90
20102;DHT22;10210;52.284;9.892;2023-12-29T10:31:37;12.20;99.90
20102;DHT22;10210;52.284;9.892;2023-12-29T10:34:22;12.20;99.90
20102;DHT22;10210;52.284;9.892;2023-12-29T10:37:00;12.20;99.90
20102;DHT22;10210;52.284;9.892;2023-12-29T10:39:29;12.20;99.90
20102;DHT22;10210;52.284;9.892;2023-12-29T10:42:07;12.10;99.90
20102;DHT22;10210;52.284;9.892;2023-12-29T10:44:35;12.10;99.90
20102;DHT22;10210;52.284;9.892;2023-12-29T10:47:12;12.10;99.90
20102;DHT22;10210;52.284;9.892;2023-12-29T10:49:39;12.10;99.90
20102;DHT22;10210;52.284;9.892;2023-12-29T10:52:12;12.00;99.90
20102;DHT22;10210;52.284;9.892;2023-12-29T10:54:40;12.00;99.90
20102;DHT22;10210;52.284;9.892;2023-12-29T10:57:08;12.00;99.90
20102;DHT22;10210;52.284;9.892;2023-12-29T10:59:35;12.00;99.90
20102;DHT22;10210;52.284;9.892;2023-12-29T11:02:02;11.90;99.90
20102;DHT22;10210;52.284;9.892;2023-12-29T11:04:29;12.00;99.90
20102;DHT22;10210;52.284;9.892;2023-12-29T11:06:54;12.00;99.90
20102;DHT22;10210;52.284;9.892;2023-12-29T11:09:30;11.90;99.90
20102;DHT22;10210;52.284;9.892;2023-12-29T11:12:02;12.00;99.90
20102;DHT22;10210;52.284;9.892;2023-12-29T11:14:29;12.00;99.90
20102;DHT22;10210;52.284;9.892;2023-12-29T11:16:56;11.90;99.90
20102;DHT22;10210;52.284;9.892;2023-12-29T11:19:23;12.00;99.90
20102;DHT22;10210;52.284;9.892;2023-12-29T11:21:56;12.00;99.90
20102;DHT22;10210;52.284;9.892;2023-12-29T11:24:23;12.00;99.90
20102;DHT22;10210;52.284;9.892;2023-12-29T11:26:49;12.00;99.90
20102;DHT22;10210;52.284;9.892;2023-12-29T11:29:18;12.10;99.90
20102;DHT22;10210;52.284;9.892;2023-12-29T11:31:45;12.10;99.90
20102;DHT22;10210;52.284;9.892;2023-12-29T11:34:35;12.10;99.90
20102;DHT22;10210;52.284;9.892;2023-12-29T11:37:45;12.20;99.90
20102;DHT22;10210;52.284;9.892;2023-12-29T11:43:22;12.20;99.90
20102;DHT22;10210;52.284;9.892;2023-12-29T11:45:49;12.30;99.90
20102;DHT22;10210;52.284;9.892;2023-12-29T11:54:27;12.40;99.90
20102;DHT22;10210;52.284;9.892;2023-12-29T11:56:54;12.40;99.90
20102;DHT22;10210;52.284;9.892;2023-12-29T11:59:21;12.50;99.90
20102;DHT22;10210;52.284;9.892;2023-12-29T12:01:55;12.50;99.90
20102;DHT22;10210;52.284;9.892;2023-12-29T12:04:41;12.40;99.90
20102;DHT22;10210;52.284;9.892;2023-12-29T12:07:16;12.50;99.90
20102;DHT22;10210;52.284;9.892;2023-12-29T12:12:47;12.50;99.90
20102;DHT22;10210;52.284;9.892;2023-12-29T12:17:59;12.60;99.90
20102;DHT22;10210;52.284;9.892;2023-12-29T12:20:26;12.60;99.90
20102;DHT22;10210;52.284;9.892;2023-12-29T12:23:01;12.60;99.90
20102;DHT22;10210;52.284;9.892;2023-12-29T12:25:31;12.60;99.90
20102;DHT22;10210;52.284;9.892;2023-12-29T12:28:05;12.70;99.90
20102;DHT22;10210;52.284;9.892;2023-12-29T12:30:35;12.70;99.90
20102;DHT22;10210;52.284;9.892;2023-12-29T12:33:02;12.70;99.90
20102;DHT22;10210;52.284;9.892;2023-12-29T12:35:29;12.70;99.90
20102;DHT22;10210;52.284;9.892;2023-12-29T12:38:11;12.70;99.90
20102;DHT22;10210;52.284;9.892;2023-12-29T12:40:38;12.70;99.90
20102;DHT22;10210;52.284;9.892;2023-12-29T12:43:05;12.70;99.90
20102;DHT22;10210;52.284;9.892;2023-12-29T12:45:42;12.70;99.90
20102;DHT22;10210;52.284;9.892;2023-12-29T12:48:24;12.70;99.90
20102;DHT22;10210;52.284;9.892;2023-12-29T12:50:58;12.70;99.90
20102;DHT22;10210;52.284;9.892;2023-12-29T12:53:25;12.70;99.90
20102;DHT22;10210;52.284;9.892;2023-12-29T12:55:53;12.70;99.90
20102;DHT22;10210;52.284;9.892;2023-12-29T12:58:20;12.70;99.90
20102;DHT22;10210;52.284;9.892;2023-12-29T13:00:48;12.70;99.90
20102;DHT22;10210;52.284;9.892;2023-12-29T13:03:15;12.70;99.90
20102;DHT22;10210;52.284;9.892;2023-12-29T13:05:42;12.70;99.90
20102;DHT22;10210;52.284;9.892;2023-12-29T13:08:09;12.70;99.90
20102;DHT22;10210;52.284;9.892;2023-12-29T13:10:41;12.70;99.90
20102;DHT22;10210;52.284;9.892;2023-12-29T13:13:08;12.70;99.90
20102;DHT22;10210;52.284;9.892;2023-12-29T13:15:36;12.70;99.90
20102;DHT22;10210;52.284;9.892;2023-12-29T13:18:13;12.70;99.90
20102;DHT22;10210;52.284;9.892;2023-12-29T13:20:49;12.70;99.90
20102;DHT22;10210;52.284;9.892;2023-12-29T13:23:16;12.70;99.90
20102;DHT22;10210;52.284;9.892;2023-12-29T13:25:46;12.70;99.90
20102;DHT22;10210;52.284;9.892;2023-12-29T13:28:13;12.70;99.90
20102;DHT22;10210;52.284;9.892;2023-12-29T13:30:40;12.70;99.90
20102;DHT22;10210;52.284;9.892;2023-12-29T13:33:17;12.70;99.90
20102;DHT22;10210;52.284;9.892;2023-12-29T13:35:57;12.70;99.90
20102;DHT22;10210;52.284;9.892;2023-12-29T13:38:39;12.70;99.90
20102;DHT22;10210;52.284;9.892;2023-12-29T13:41:12;12.70;99.90
20102;DHT22;10210;52.284;9.892;2023-12-29T13:43:41;12.70;99.90
20102;DHT22;10210;52.284;9.892;2023-12-29T13:46:11;12.70;99.90
20102;DHT22;10210;52.284;9.892;2023-12-29T13:48:39;12.70;99.90
20102;DHT22;10210;52.284;9.892;2023-12-29T13:51:06;12.70;99.90
20102;DHT22;10210;52.284;9.892;2023-12-29T13:53:33;12.70;99.90
20102;DHT22;10210;52.284;9.892;2023-12-29T13:56:08;12.70;99.90
20102;DHT22;10210;52.284;9.892;2023-12-29T13:58:35;12.70;99.90
20102;DHT22;10210;52.284;9.892;2023-12-29T14:01:04;12.80;99.90
20102;DHT22;10210;52.284;9.892;2023-12-29T14:03:46;12.70;99.90
20102;DHT22;10210;52.284;9.892;2023-12-29T14:06:21;12.80;99.90
20102;DHT22;10210;52.284;9.892;2023-12-29T14:08:53;12.80;99.90
20102;DHT22;10210;52.284;9.892;2023-12-29T14:11:19;12.80;99.90
20102;DHT22;10210;52.284;9.892;2023-12-29T14:13:45;12.80;99.90
20102;DHT22;10210;52.284;9.892;2023-12-29T14:16:13;12.80;99.90
20102;DHT22;10210;52.284;9.892;2023-12-29T14:21:30;12.80;99.90
20102;DHT22;10210;52.284;9.892;2023-12-29T14:24:09;12.80;99.90
20102;DHT22;10210;52.284;9.892;2023-12-29T14:26:37;12.80;99.90
20102;DHT22;10210;52.284;9.892;2023-12-29T14:29:07;12.90;99.90
20102;DHT22;10210;52.284;9.892;2023-12-29T14:31:37;12.80;99.90
20102;DHT22;10210;52.284;9.892;2023-12-29T14:34:05;12.80;99.90
20102;DHT22;10210;52.284;9.892;2023-12-29T14:36:32;12.80;99.90
20102;DHT22;10210;52.284;9.892;2023-12-29T14:38:58;12.80;99.90
20102;DHT22;10210;52.284;9.892;2023-12-29T14:41:24;12.90;99.90
20102;DHT22;10210;52.284;9.892;2023-12-29T14:43:51;12.90;99.90
20102;DHT22;10210;52.284;9.892;2023-12-29T14:46:17;12.90;99.90
20102;DHT22;10210;52.284;9.892;2023-12-29T14:48:43;12.80;99.90
20102;DHT22;10210;52.284;9.892;2023-12-29T14:51:09;12.80;99.90
20102;DHT22;10210;52.284;9.892;2023-12-29T14:53:37;12.90;99.90
20102;DHT22;10210;52.284;9.892;2023-12-29T14:56:03;12.80;99.90
20102;DHT22;10210;52.284;9.892;2023-12-29T14:58:29;12.90;99.90
20102;DHT22;10210;52.284;9.892;2023-12-29T15:00:56;12.80;99.90
20102;DHT22;10210;52.284;9.892;2023-12-29T15:03:22;12.80;99.90
20102;DHT22;10210;52.284;9.892;2023-12-29T15:05:49;12.90;99.90
20102;DHT22;10210;52.284;9.892;2023-12-29T15:08:15;12.80;99.90
20102;DHT22;10210;52.284;9.892;2023-12-29T15:10:43;12.80;99.90
20102;DHT22;10210;52.284;9.892;2023-12-29T15:13:10;12.80;99.90
20102;DHT22;10210;52.284;9.892;2023-12-29T15:15:36;12.80;99.90
20102;DHT22;10210;52.284;9.892;2023-12-29T15:18:03;12.90;99.90
20102;DHT22;10210;52.284;9.892;2023-12-29T15:20:28;12.90;99.90
20102;DHT22;10210;52.284;9.892;2023-12-29T15:22:54;12.90;99.90
20102;DHT22;10210;52.284;9.892;2023-12-29T15:25:24;12.90;99.90
20102;DHT22;10210;52.284;9.892;2023-12-29T15:27:51;12.90;99.90
20102;DHT22;10210;52.284;9.892;2023-12-29T15:30:18;12.90;99.90
20102;DHT22;10210;52.284;9.892;2023-12-29T15:32:45;12.90;99.90
20102;DHT22;10210;52.284;9.892;2023-12-29T15:35:11;12.90;99.90
20102;DHT22;10210;52.284;9.892;2023-12-29T15:37:36;12.90;99.90
20102;DHT22;10210;52.284;9.892;2023-12-29T15:40:03;12.90;99.90
20102;DHT22;10210;52.284;9.892;2023-12-29T15:42:29;12.80;99.90
20102;DHT22;10210;52.284;9.892;2023-12-29T15:44:55;12.90;99.90
20102;DHT22;10210;52.284;9.892;2023-12-29T15:47:21;12.90;99.90
20102;DHT22;10210;52.284;9.892;2023-12-29T15:49:47;12.80;99.90
20102;DHT22;10210;52.284;9.892;2023-12-29T15:52:12;12.80;99.90
20102;DHT22;10210;52.284;9.892;2023-12-29T15:54:38;12.90;99.90
20102;DHT22;10210;52.284;9.892;2023-12-29T15:57:05;12.90;99.90